createdAt,value
2023-01-17T00:02:21.141Z,4.46
2023-01-17T00:05:07.867Z,4.46
2023-01-17T00:07:55.148Z,4.41
2023-01-17T00:10:25.074Z,4.37
2023-01-17T00:12:54.770Z,4.37
2023-01-17T00:15:26.325Z,4.38
2023-01-17T00:17:57.561Z,4.37
2023-01-17T00:20:48.880Z,4.36
2023-01-17T00:24:00.881Z,4.34
2023-01-17T00:26:30.782Z,4.32
2023-01-17T00:28:58.739Z,4.29
2023-01-17T00:31:26.691Z,4.25
2023-01-17T00:33:54.374Z,4.23
2023-01-17T00:36:22.119Z,4.21
2023-01-17T00:38:49.818Z,4.20
2023-01-17T00:41:17.752Z,4.20
2023-01-17T00:44:04.289Z,4.22
2023-01-17T00:46:50.957Z,4.21
2023-01-17T00:49:37.573Z,4.21
2023-01-17T00:52:24.000Z,4.22
2023-01-17T00:55:10.907Z,4.19
2023-01-17T00:57:57.506Z,4.16
2023-01-17T01:00:44.230Z,4.11
2023-01-17T01:03:31.091Z,4.08
2023-01-17T01:06:17.865Z,4.09
2023-01-17T01:09:04.057Z,4.13
2023-01-17T01:11:51.185Z,4.15
2023-01-17T01:14:37.824Z,4.14
2023-01-17T01:17:24.674Z,4.09
2023-01-17T01:20:11.424Z,4.06
2023-01-17T01:22:57.961Z,4.00
2023-01-17T01:25:44.159Z,3.96
2023-01-17T01:28:32.273Z,3.94
2023-01-17T01:31:23.823Z,3.95
2023-01-17T01:33:53.143Z,3.99
2023-01-17T01:36:21.185Z,4.01
2023-01-17T01:38:50.332Z,4.01
2023-01-17T01:41:18.493Z,4.04
2023-01-17T01:43:49.284Z,4.02
2023-01-17T01:46:24.572Z,3.98
2023-01-17T01:49:13.461Z,3.93
2023-01-17T01:51:45.351Z,3.87
2023-01-17T01:54:34.128Z,3.85
2023-01-17T01:57:04.235Z,3.86
2023-01-17T01:59:33.642Z,3.89
2023-01-17T02:02:01.580Z,3.90
2023-01-17T02:04:29.493Z,3.89
2023-01-17T02:07:07.355Z,3.87
2023-01-17T02:09:35.369Z,3.88
2023-01-17T02:12:03.874Z,3.86
2023-01-17T02:14:31.758Z,3.85
2023-01-17T02:17:24.786Z,3.83
2023-01-17T02:20:02.113Z,3.83
2023-01-17T02:23:01.642Z,3.83
2023-01-17T02:25:48.304Z,3.84
2023-01-17T02:28:36.835Z,3.87
2023-01-17T02:31:27.625Z,3.87
2023-01-17T02:34:08.477Z,3.87
2023-01-17T02:37:01.230Z,3.84
2023-01-17T02:39:35.015Z,3.85
2023-01-17T02:42:07.648Z,3.83
2023-01-17T02:44:42.954Z,3.81
2023-01-17T02:47:26.493Z,3.77
2023-01-17T02:49:58.487Z,3.74
2023-01-17T02:52:49.689Z,3.73
2023-01-17T02:55:37.108Z,3.77
2023-01-17T02:58:16.931Z,3.80
2023-01-17T03:01:10.130Z,3.83
2023-01-17T03:03:55.256Z,3.82
2023-01-17T03:06:33.818Z,3.79
2023-01-17T03:09:02.532Z,3.75
2023-01-17T03:11:30.443Z,3.74
2023-01-17T03:13:58.503Z,3.74
2023-01-17T03:16:29.340Z,3.72
2023-01-17T03:18:57.362Z,3.71
2023-01-17T03:21:25.734Z,3.69
2023-01-17T03:23:53.608Z,3.67
2023-01-17T03:26:21.842Z,3.64
2023-01-17T03:28:49.845Z,3.68
2023-01-17T03:31:20.047Z,3.71
2023-01-17T03:33:48.537Z,3.74
2023-01-17T03:36:16.478Z,3.77
2023-01-17T03:38:44.885Z,3.79
2023-01-17T03:41:13.155Z,3.78
2023-01-17T03:43:41.240Z,3.78
2023-01-17T03:46:21.550Z,3.77
2023-01-17T03:48:50.372Z,3.75
2023-01-17T03:51:18.466Z,3.73
2023-01-17T03:53:50.109Z,3.70
2023-01-17T03:56:18.448Z,3.65
2023-01-17T03:58:46.567Z,3.64
2023-01-17T04:01:14.739Z,3.64
2023-01-17T04:03:43.436Z,3.67
2023-01-17T04:06:12.093Z,3.72
2023-01-17T04:08:42.954Z,3.74
2023-01-17T04:11:10.944Z,3.76
2023-01-17T04:13:38.816Z,3.76
2023-01-17T04:16:11.010Z,3.77
2023-01-17T04:18:38.911Z,3.74
2023-01-17T04:21:07.801Z,3.73
2023-01-17T04:23:35.814Z,3.71
2023-01-17T04:26:03.875Z,3.67
2023-01-17T04:28:31.881Z,3.67
2023-01-17T04:31:00.587Z,3.64
2023-01-17T04:33:28.518Z,3.61
2023-01-17T04:35:56.648Z,3.58
2023-01-17T04:38:24.926Z,3.57
2023-01-17T04:40:53.968Z,3.61
2023-01-17T04:43:21.810Z,3.65
2023-01-17T04:45:55.230Z,3.67
2023-01-17T04:48:24.253Z,3.67
2023-01-17T04:50:51.998Z,3.64
2023-01-17T04:53:19.835Z,3.61
2023-01-17T04:55:47.863Z,3.57
2023-01-17T04:58:18.143Z,3.51
2023-01-17T05:00:50.894Z,3.45
2023-01-17T05:03:20.190Z,3.41
2023-01-17T05:05:48.498Z,3.34
2023-01-17T05:08:16.481Z,3.32
2023-01-17T05:10:46.276Z,3.26
2023-01-17T05:13:14.342Z,3.26
2023-01-17T05:15:42.645Z,3.28
2023-01-17T05:18:18.219Z,3.28
2023-01-17T05:20:46.486Z,3.31
2023-01-17T05:23:14.657Z,3.30
2023-01-17T05:25:44.380Z,3.30
2023-01-17T05:28:13.164Z,3.31
2023-01-17T05:30:41.287Z,3.30
2023-01-17T05:33:10.356Z,3.28
2023-01-17T05:35:38.591Z,3.25
2023-01-17T05:38:06.495Z,3.20
2023-01-17T05:40:34.396Z,3.17
2023-01-17T05:43:06.699Z,3.14
2023-01-17T05:45:34.738Z,3.11
2023-01-17T05:48:03.136Z,3.12
2023-01-17T05:50:36.898Z,3.12
2023-01-17T05:53:08.316Z,3.15
2023-01-17T05:55:36.870Z,3.18
2023-01-17T05:58:05.430Z,3.21
2023-01-17T06:00:33.697Z,3.23
2023-01-17T06:03:01.665Z,3.26
2023-01-17T06:05:29.770Z,3.28
2023-01-17T06:07:58.169Z,3.30
2023-01-17T06:10:26.909Z,3.30
2023-01-17T06:13:03.412Z,3.31
2023-01-17T06:15:32.398Z,3.31
2023-01-17T06:18:05.151Z,3.30
2023-01-17T06:20:34.309Z,3.30
2023-01-17T06:23:04.514Z,3.29
2023-01-17T06:25:45.790Z,3.28
2023-01-17T06:28:16.016Z,3.27
2023-01-17T06:30:44.071Z,3.29
2023-01-17T06:33:12.875Z,3.35
2023-01-17T06:35:47.290Z,3.41
2023-01-17T06:38:15.082Z,3.46
2023-01-17T06:40:45.260Z,3.51
2023-01-17T06:43:13.119Z,3.54
2023-01-17T06:45:41.006Z,3.56
2023-01-17T06:48:08.907Z,3.56
2023-01-17T06:50:36.657Z,3.56
2023-01-17T06:53:07.445Z,3.54
2023-01-17T06:55:37.293Z,3.53
2023-01-17T06:58:05.135Z,3.50
2023-01-17T07:00:35.283Z,3.47
2023-01-17T07:03:03.384Z,3.43
2023-01-17T07:05:31.346Z,3.38
2023-01-17T07:07:59.219Z,3.33
2023-01-17T07:10:27.642Z,3.29
2023-01-17T07:12:59.976Z,3.25
2023-01-17T07:15:28.336Z,3.22
2023-01-17T07:17:56.333Z,3.24
2023-01-17T07:20:24.392Z,3.28
2023-01-17T07:22:52.277Z,3.30
2023-01-17T07:25:20.322Z,3.31
2023-01-17T07:27:48.694Z,3.31
2023-01-17T07:30:17.002Z,3.28
2023-01-17T07:32:44.770Z,3.26
2023-01-17T07:35:12.605Z,3.24
2023-01-17T07:37:40.496Z,3.21
2023-01-17T07:40:09.229Z,3.17
2023-01-17T07:42:37.346Z,3.15
2023-01-17T07:45:06.070Z,3.13
2023-01-17T07:47:34.127Z,3.11
2023-01-17T07:50:02.956Z,3.09
2023-01-17T07:52:31.369Z,3.10
2023-01-17T07:54:59.241Z,3.13
2023-01-17T07:57:27.197Z,3.18
2023-01-17T07:59:55.241Z,3.26
2023-01-17T08:02:23.725Z,3.30
2023-01-17T08:04:52.879Z,3.37
2023-01-17T08:07:21.409Z,3.41
2023-01-17T08:09:50.256Z,3.47
2023-01-17T08:12:18.273Z,3.47
2023-01-17T08:14:46.448Z,3.49
2023-01-17T08:17:16.414Z,3.50
2023-01-17T08:19:44.970Z,3.52
2023-01-17T08:22:12.993Z,3.53
2023-01-17T08:24:44.846Z,3.53
2023-01-17T08:27:15.320Z,3.54
2023-01-17T08:29:47.252Z,3.53
2023-01-17T08:32:15.982Z,3.53
2023-01-17T08:34:43.812Z,3.51
2023-01-17T08:37:11.732Z,3.50
2023-01-17T08:39:39.550Z,3.52
2023-01-17T08:42:07.426Z,3.57
2023-01-17T08:44:35.546Z,3.64
2023-01-17T08:47:03.343Z,3.70
2023-01-17T08:49:31.069Z,3.74
2023-01-17T08:51:59.039Z,3.79
2023-01-17T08:54:26.930Z,3.83
2023-01-17T08:56:55.792Z,3.85
2023-01-17T08:59:23.800Z,3.89
2023-01-17T09:01:52.670Z,3.91
2023-01-17T09:04:20.628Z,3.93
2023-01-17T09:06:48.933Z,3.96
2023-01-17T09:09:17.343Z,3.98
2023-01-17T09:11:45.239Z,3.99
2023-01-17T09:14:13.512Z,3.99
2023-01-17T09:16:41.508Z,4.01
2023-01-17T09:19:09.383Z,4.03
2023-01-17T09:21:37.712Z,4.03
2023-01-17T09:24:05.688Z,4.08
2023-01-17T09:26:33.693Z,4.11
2023-01-17T09:29:01.810Z,4.16
2023-01-17T09:31:29.949Z,4.23
2023-01-17T09:33:58.778Z,4.32
2023-01-17T09:36:29.326Z,4.42
2023-01-17T09:39:00.997Z,4.50
2023-01-17T09:41:31.225Z,4.56
2023-01-17T09:44:04.818Z,4.62
2023-01-17T09:46:37.891Z,4.67
2023-01-17T09:49:09.698Z,4.71
2023-01-17T09:51:37.763Z,4.75
2023-01-17T09:54:05.688Z,4.80
2023-01-17T09:56:41.525Z,4.83
2023-01-17T09:59:21.666Z,4.87
2023-01-17T10:02:11.418Z,4.89
2023-01-17T10:04:49.368Z,4.91
2023-01-17T10:07:28.694Z,4.94
2023-01-17T10:10:04.395Z,4.96
2023-01-17T10:12:39.836Z,4.98
2023-01-17T10:15:24.368Z,4.99
2023-01-17T10:18:34.407Z,5.00
2023-01-17T10:21:05.641Z,5.00
2023-01-17T10:26:25.405Z,5.01
2023-01-17T10:28:58.391Z,5.01
2023-01-17T10:31:29.045Z,4.94
2023-01-17T10:33:59.076Z,5.02
2023-01-17T10:36:30.348Z,5.03
2023-01-17T10:39:04.672Z,5.04
2023-01-17T10:41:39.417Z,5.04
2023-01-17T10:44:13.643Z,5.05
2023-01-17T10:46:46.880Z,5.06
2023-01-17T10:49:20.836Z,5.06
2023-01-17T10:52:00.700Z,5.07
2023-01-17T10:54:53.136Z,5.08
2023-01-17T10:57:23.794Z,5.11
2023-01-17T10:59:52.496Z,5.13
2023-01-17T11:02:28.257Z,5.16
2023-01-17T11:04:57.570Z,5.19
2023-01-17T11:07:27.032Z,5.25
2023-01-17T11:09:58.536Z,5.28
2023-01-17T11:12:41.805Z,5.31
2023-01-17T11:15:10.087Z,5.34
2023-01-17T11:17:53.357Z,5.35
2023-01-17T11:20:34.553Z,5.36
2023-01-17T11:23:21.884Z,5.38
2023-01-17T11:25:52.787Z,5.40
2023-01-17T11:28:23.745Z,5.42
2023-01-17T11:31:00.282Z,5.44
2023-01-17T11:33:36.124Z,5.46
2023-01-17T11:36:04.219Z,5.47
2023-01-17T11:38:32.637Z,5.49
2023-01-17T11:41:21.469Z,5.49
2023-01-17T11:43:59.666Z,5.49
2023-01-17T11:46:29.782Z,5.50
2023-01-17T11:49:00.345Z,5.50
2023-01-17T11:51:39.644Z,5.52
2023-01-17T11:54:18.011Z,5.52
2023-01-17T11:56:46.708Z,5.52
2023-01-17T11:59:29.611Z,5.53
2023-01-17T12:02:33.755Z,5.52
2023-01-17T12:05:33.215Z,5.52
2023-01-17T12:08:27.326Z,5.52
2023-01-17T12:11:22.171Z,5.50
2023-01-17T12:14:23.098Z,5.49
2023-01-17T12:16:58.916Z,5.47
2023-01-17T12:19:41.543Z,5.47
2023-01-17T12:22:23.958Z,5.45
2023-01-17T12:25:15.201Z,5.45
2023-01-17T12:28:08.761Z,5.44
2023-01-17T12:30:52.170Z,5.44
2023-01-17T12:33:27.939Z,5.44
2023-01-17T12:36:02.744Z,5.43
2023-01-17T12:38:37.197Z,5.43
2023-01-17T12:41:26.822Z,5.43
2023-01-17T12:44:00.568Z,5.43
2023-01-17T12:46:39.157Z,5.43
2023-01-17T12:49:23.562Z,5.43
2023-01-17T12:51:56.558Z,5.42
2023-01-17T12:54:29.950Z,5.43
2023-01-17T12:57:14.222Z,5.41
2023-01-17T13:00:01.806Z,5.41
2023-01-17T13:02:40.871Z,5.41
2023-01-17T13:05:15.749Z,5.41
2023-01-17T13:07:56.407Z,5.41
2023-01-17T13:10:33.433Z,5.40
2023-01-17T13:13:22.770Z,5.41
2023-01-17T13:16:13.641Z,5.41
2023-01-17T13:18:46.435Z,5.41
2023-01-17T13:21:26.828Z,5.41
2023-01-17T13:24:04.121Z,5.40
2023-01-17T13:27:11.444Z,5.39
2023-01-17T13:37:40.805Z,5.36
2023-01-17T13:41:31.515Z,5.36
2023-01-17T13:44:50.882Z,5.36
2023-01-17T13:55:19.619Z,5.31
2023-01-17T13:59:19.219Z,5.30
2023-01-17T14:37:53.312Z,5.08
2023-01-17T14:40:26.467Z,5.05
2023-01-17T14:43:11.549Z,5.03
2023-01-17T14:45:40.310Z,5.01
2023-01-17T14:48:17.087Z,4.99
2023-01-17T14:50:46.831Z,4.97
2023-01-17T14:53:28.357Z,4.94
2023-01-17T14:56:13.596Z,4.91
2023-01-17T14:58:41.808Z,4.88
2023-01-17T15:01:15.222Z,4.85
2023-01-17T15:03:51.702Z,4.83
2023-01-17T15:06:23.905Z,4.81
2023-01-17T15:08:54.352Z,4.79
2023-01-17T15:11:29.781Z,4.77
2023-01-17T15:13:59.652Z,4.76
2023-01-17T15:16:31.189Z,4.72
2023-01-17T15:18:59.736Z,4.69
2023-01-17T15:21:37.013Z,4.65
2023-01-17T15:24:08.351Z,4.60
2023-01-17T15:26:39.903Z,4.57
2023-01-17T15:29:15.800Z,4.53
2023-01-17T15:31:47.271Z,4.49
2023-01-17T15:34:25.628Z,4.45
2023-01-17T15:36:57.173Z,4.42
2023-01-17T15:39:30.372Z,4.38
2023-01-17T15:42:01.123Z,4.34
2023-01-17T15:44:53.286Z,4.30
2023-01-17T15:47:28.245Z,4.25
2023-01-17T15:49:56.767Z,4.22
2023-01-17T15:52:24.663Z,4.16
2023-01-17T15:54:54.822Z,4.11
2023-01-17T15:57:37.667Z,4.06
2023-01-17T16:00:09.501Z,3.99
2023-01-17T16:02:44.565Z,3.93
2023-01-17T16:05:25.157Z,3.87
2023-01-17T16:08:02.701Z,3.80
2023-01-17T16:10:36.442Z,3.74
2023-01-17T16:13:12.093Z,3.66
2023-01-17T16:15:41.706Z,3.60
2023-01-17T16:18:18.440Z,3.54
2023-01-17T16:20:59.568Z,3.47
2023-01-17T16:23:28.040Z,3.41
2023-01-17T16:25:55.979Z,3.36
2023-01-17T16:28:24.704Z,3.29
2023-01-17T16:30:54.118Z,3.22
2023-01-17T16:33:22.210Z,3.17
2023-01-17T16:35:54.099Z,3.12
2023-01-17T16:38:21.965Z,3.05
2023-01-17T16:40:49.837Z,2.99
2023-01-17T16:43:19.644Z,2.93
2023-01-17T16:45:50.535Z,2.87
2023-01-17T16:48:19.373Z,2.82
2023-01-17T16:50:50.727Z,2.78
2023-01-17T16:53:25.088Z,2.74
2023-01-17T16:55:57.209Z,2.69
2023-01-17T16:58:25.692Z,2.64
2023-01-17T17:00:55.731Z,2.60
2023-01-17T17:03:23.873Z,2.55
2023-01-17T17:06:00.550Z,2.51
2023-01-17T17:08:29.750Z,2.47
2023-01-17T17:11:15.021Z,2.42
2023-01-17T17:13:43.600Z,2.38
2023-01-17T17:16:27.652Z,2.34
2023-01-17T17:18:58.549Z,2.28
2023-01-17T17:21:27.400Z,2.24
2023-01-17T17:23:58.070Z,2.23
2023-01-17T17:26:29.108Z,2.19
2023-01-17T17:28:57.942Z,2.16
2023-01-17T17:31:25.985Z,2.11
2023-01-17T17:33:58.490Z,2.08
2023-01-17T17:36:26.786Z,2.04
2023-01-17T17:38:56.121Z,2.00
2023-01-17T17:41:26.893Z,1.97
2023-01-17T17:43:55.314Z,1.95
2023-01-17T17:46:31.742Z,1.92
2023-01-17T17:49:01.167Z,1.88
2023-01-17T17:51:34.536Z,1.88
2023-01-17T17:54:07.302Z,1.89
2023-01-17T17:56:36.792Z,1.90
2023-01-17T17:59:09.084Z,1.95
2023-01-17T18:01:38.475Z,1.99
2023-01-17T18:04:10.370Z,2.00
2023-01-17T18:06:38.965Z,2.02
2023-01-17T18:09:08.485Z,1.99
2023-01-17T18:11:38.145Z,1.94
2023-01-17T18:14:09.625Z,1.94
2023-01-17T18:16:43.588Z,1.91
2023-01-17T18:19:17.549Z,1.87
2023-01-17T18:21:45.696Z,1.83
2023-01-17T18:24:18.516Z,1.78
2023-01-17T18:26:48.252Z,1.74
2023-01-17T18:29:17.889Z,1.70
2023-01-17T18:31:47.520Z,1.66
2023-01-17T18:34:17.771Z,1.63
2023-01-17T18:36:45.720Z,1.60
2023-01-17T18:39:27.879Z,1.58
2023-01-17T18:41:56.126Z,1.54
2023-01-17T18:44:24.177Z,1.50
2023-01-17T18:46:55.454Z,1.48
2023-01-17T18:49:23.590Z,1.46
2023-01-17T18:51:51.843Z,1.45
2023-01-17T18:54:20.462Z,1.43
2023-01-17T18:56:48.765Z,1.43
2023-01-17T18:59:21.550Z,1.45
2023-01-17T19:01:50.268Z,1.45
2023-01-17T19:04:18.979Z,1.45
2023-01-17T19:06:48.305Z,1.44
2023-01-17T19:09:17.205Z,1.45
2023-01-17T19:11:46.626Z,1.48
2023-01-17T19:14:14.784Z,1.51
2023-01-17T19:16:43.446Z,1.56
2023-01-17T19:19:14.239Z,1.59
2023-01-17T19:21:42.238Z,1.60
2023-01-17T19:24:13.239Z,1.60
2023-01-17T19:26:42.264Z,1.63
2023-01-17T19:29:10.630Z,1.64
2023-01-17T19:31:45.880Z,1.64
2023-01-17T19:34:15.389Z,1.61
2023-01-17T19:36:43.402Z,1.59
2023-01-17T19:39:12.074Z,1.55
2023-01-17T19:41:45.317Z,1.51
2023-01-17T19:44:14.681Z,1.47
2023-01-17T19:46:43.975Z,1.44
2023-01-17T19:49:12.341Z,1.42
2023-01-17T19:51:40.528Z,1.40
2023-01-17T19:54:09.081Z,1.37
2023-01-17T19:56:37.252Z,1.33
2023-01-17T19:59:06.426Z,1.30
2023-01-17T20:01:35.190Z,1.27
2023-01-17T20:04:03.993Z,1.23
2023-01-17T20:06:37.181Z,1.20
2023-01-17T20:09:05.975Z,1.16
2023-01-17T20:11:35.175Z,1.15
2023-01-17T20:14:05.595Z,1.13
2023-01-17T20:16:35.707Z,1.13
2023-01-17T20:19:04.120Z,1.15
2023-01-17T20:21:33.367Z,1.19
2023-01-17T20:24:03.507Z,1.24
2023-01-17T20:26:37.178Z,1.30
2023-01-17T20:29:10.468Z,1.33
2023-01-17T20:31:40.397Z,1.32
2023-01-17T20:34:10.950Z,1.29
2023-01-17T20:36:40.622Z,1.27
2023-01-17T20:39:11.155Z,1.22
2023-01-17T20:41:41.561Z,1.19
2023-01-17T20:44:13.369Z,1.16
2023-01-17T20:46:41.962Z,1.12
2023-01-17T20:49:15.051Z,1.08
2023-01-17T20:51:44.619Z,1.03
2023-01-17T20:54:15.292Z,0.98
2023-01-17T20:56:43.590Z,0.98
2023-01-17T20:59:16.912Z,0.96
2023-01-17T21:01:45.521Z,0.96
2023-01-17T21:04:15.193Z,0.94
2023-01-17T21:06:43.827Z,0.90
2023-01-17T21:09:14.799Z,0.85
2023-01-17T21:11:42.748Z,0.83
2023-01-17T21:14:10.670Z,0.86
2023-01-17T21:16:39.022Z,0.90
2023-01-17T21:19:09.351Z,0.95
2023-01-17T21:21:37.439Z,0.99
2023-01-17T21:24:05.806Z,1.03
2023-01-17T21:26:34.070Z,1.06
2023-01-17T21:29:02.154Z,1.06
2023-01-17T21:31:34.187Z,1.04
2023-01-17T21:34:07.735Z,1.01
2023-01-17T21:36:38.240Z,1.00
2023-01-17T21:39:10.110Z,0.97
2023-01-17T21:41:40.204Z,0.93
2023-01-17T21:44:13.114Z,0.91
2023-01-17T21:46:41.155Z,0.90
2023-01-17T21:49:13.131Z,0.91
2023-01-17T21:51:54.892Z,0.93
2023-01-17T21:54:46.842Z,0.92
2023-01-17T21:57:38.705Z,0.91
2023-01-17T22:00:10.286Z,0.89
2023-01-17T22:02:38.559Z,0.87
2023-01-17T22:05:08.353Z,0.84
2023-01-17T22:07:39.349Z,0.84
2023-01-17T22:10:07.573Z,0.88
2023-01-17T22:12:37.940Z,0.94
2023-01-17T22:15:06.985Z,0.97
2023-01-17T22:17:34.975Z,1.01
2023-01-17T22:20:02.898Z,1.02
2023-01-17T22:22:32.646Z,1.00
2023-01-17T22:25:00.505Z,1.01
2023-01-17T22:27:29.013Z,1.00
2023-01-17T22:29:57.086Z,0.98
2023-01-17T22:32:25.283Z,0.95
2023-01-17T22:34:53.753Z,0.92
2023-01-17T22:37:21.870Z,0.91
2023-01-17T22:39:49.810Z,0.87
2023-01-17T22:42:17.712Z,0.83
2023-01-17T22:44:48.007Z,0.78
2023-01-17T22:47:15.931Z,0.76
2023-01-17T22:49:46.207Z,0.72
2023-01-17T22:52:14.365Z,0.69
2023-01-17T22:54:42.209Z,0.71
2023-01-17T22:57:10.255Z,0.75
2023-01-17T22:59:38.592Z,0.79
2023-01-17T23:02:06.519Z,0.84
2023-01-17T23:04:34.475Z,0.86
2023-01-17T23:07:02.558Z,0.91
2023-01-17T23:09:30.892Z,0.94
2023-01-17T23:11:58.868Z,0.95
2023-01-17T23:14:27.001Z,0.96
2023-01-17T23:17:18.462Z,0.98
2023-01-17T23:19:48.840Z,0.98
2023-01-17T23:22:22.133Z,0.99
2023-01-17T23:25:11.971Z,1.00
2023-01-17T23:28:03.604Z,0.96
2023-01-17T23:30:37.452Z,0.93
2023-01-17T23:33:10.613Z,0.93
2023-01-17T23:35:42.194Z,0.94
2023-01-17T23:38:34.649Z,0.99
2023-01-17T23:41:25.025Z,1.08
2023-01-17T23:43:54.379Z,1.16
2023-01-17T23:46:23.024Z,1.19
2023-01-17T23:48:51.346Z,1.22
2023-01-17T23:51:19.230Z,1.23
2023-01-17T23:53:47.639Z,1.25
2023-01-17T23:56:19.547Z,1.26
2023-01-17T23:58:47.420Z,1.25
